Latest Weather Observations for Wyndham Airport

IDW60801

Issued at 10:03 am WST Friday 14 May 2021 (issued every 10 minutes, with the page automatically refreshed every 10 minutes)

About weather observations | Map of weather stations | Latest weather observations for WA | Other Formats
Station Details ID: 001006 Name: WYNDHAM AERO Lat: -15.51 Lon: 128.15 Height: 3.8 m
Data from the previous 72 hours. | See also: Recent months at Wyndham Airport
Date/Time
WST
Temp
°C
App
Temp
°C
Dew
Point
°C
Rel
Hum
%
Delta-T
°C
Wind Press
QNH
hPa
Press
MSL
hPa
Rain since
9am
mm
Dir  Spd
km/h
Gust
km/h
Spd
kts
Gust
kts
14/10:00am 30.1 22.8 -0.3 14 14.4 E 28 37 15 20 1013.7 1013.7 0.0
14/09:30am 29.5 21.7 -0.8 14 14.2 ESE 30 39 16 21 1014.1 1014.1 0.0
14/09:00am 29.3 21.5 -0.9 14 14.1 ESE 30 39 16 21 1014.4 1014.4 0.0
14/08:30am 28.2 21.8 0.9 17 13.1 ESE 24 32 13 17 1014.3 1014.3 0.0
14/08:00am 27.0 21.3 0.7 18 12.4 ESE 20 26 11 14 1014.3 1014.3 0.0
14/07:30am 24.8 22.1 2.9 24 10.6 ESE 6 9 3 5 1014.3 1014.3 0.0
14/07:00am 22.5 20.1 4.5 31 8.8 ENE 6 7 3 4 1014.3 1014.3 0.0
14/06:30am 19.9 17.6 5.9 40 6.9 E 7 7 4 4 1014.1 1014.1 0.0
14/06:00am 17.4 14.6 5.0 44 5.9 ESE 9 9 5 5 1013.8 1013.8 0.0
14/05:30am 17.4 15.0 5.4 45 5.8 ESE 7 7 4 4 1013.5 1013.5 0.0
14/05:00am 18.2 16.0 6.4 46 5.8 ESE 7 9 4 5 1013.1 1013.1 0.0
14/04:30am 16.5 14.4 5.8 49 5.2 ESE 6 7 3 4 1012.8 1012.8 0.0
14/04:00am 16.5 14.3 6.1 50 5.1 ESE 7 9 4 5 1012.7 1012.7 0.0
14/03:30am 17.3 14.7 6.2 48 5.4 ESE 9 11 5 6 1012.4 1012.4 0.0
14/03:00am 17.0 16.3 7.1 52 4.9 CALM 0 0 0 0 1012.3 1012.3 0.0
14/02:30am 16.9 16.0 6.1 49 5.3 CALM 0 0 0 0 1012.2 1012.2 0.0
14/02:00am 18.6 17.3 7.7 49 5.6 ESE 4 7 2 4 1012.1 1012.1 0.0
14/01:30am 19.7 16.3 5.7 40 6.9 ESE 13 15 7 8 1011.9 1011.9 0.0
14/01:00am 21.4 17.6 5.7 36 7.8 E 15 17 8 9 1011.8 1011.8 0.0
14/12:30am 22.5 18.5 6.7 36 8.1 E 17 19 9 10 1012.0 1012.0 0.0
14/12:00am 17.9 14.5 5.8 45 5.9 ESE 13 15 7 8 1012.2 1012.2 0.0
 
Date/Time
WST
Temp
°C
App
Temp
°C
Dew
Point
°C
Rel
Hum
%
Delta-T
°C
Wind Press
QNH
hPa
Press
MSL
hPa
Rain since
9am
mm
Dir  Spd
km/h
Gust
km/h
Spd
kts
Gust
kts
13/11:30pm 19.3 16.9 7.1 45 6.2 E 9 11 5 6 1012.2 1012.2 0.0
13/11:00pm 19.9 19.3 7.3 44 6.4 CALM 0 0 0 0 1012.2 1012.2 0.0
13/10:30pm 19.9 19.6 8.6 48 5.9 CALM 0 6 0 3 1012.0 1012.0 0.0
13/10:00pm 19.8 17.7 6.5 42 6.7 E 7 9 4 5 1011.8 1011.8 0.0
13/09:30pm 20.9 20.1 6.4 39 7.3 CALM 0 0 0 0 1011.6 1011.6 0.0
13/09:00pm 21.9 19.5 5.3 34 8.3 E 7 9 4 5 1011.7 1011.7 0.0
13/08:30pm 24.0 21.6 5.4 30 9.4 E 7 9 4 5 1011.8 1011.8 0.0
13/08:00pm 24.5 21.3 5.3 29 9.7 E 11 11 6 6 1011.7 1011.7 0.0
13/07:30pm 25.1 21.9 5.3 28 10.0 ESE 11 13 6 7 1011.5 1011.5 0.0
13/07:00pm 25.0 21.9 5.7 29 9.9 SE 11 15 6 8 1011.2 1011.2 0.0
13/06:30pm 28.6 24.0 5.5 23 12.0 SSE 19 24 10 13 1010.9 1010.9 0.0
13/06:00pm 29.4 24.4 4.8 21 12.7 SSE 20 26 11 14 1010.7 1010.7 0.0
13/05:30pm 29.4 25.2 5.5 22 12.5 SSE 17 20 9 11 1010.4 1010.4 0.0
13/05:00pm 30.5 25.6 5.0 20 13.3 SSE 20 26 11 14 1010.0 1010.0 0.0
13/04:30pm 31.8 26.4 4.6 18 14.2 SSE 22 28 12 15 1009.9 1009.9 0.0
13/04:00pm 32.6 27.8 4.4 17 14.8 SE 19 24 10 13 1009.6 1009.6 0.0
13/03:30pm 33.2 28.7 4.0 16 15.2 SSE 17 26 9 14 1009.3 1009.3 0.0
13/03:00pm 33.6 28.7 4.3 16 15.4 SE 19 26 10 14 1009.1 1009.1 0.0
13/02:30pm 33.8 29.4 4.5 16 15.4 ESE 17 28 9 15 1009.3 1009.3 0.0
13/02:00pm 33.4 28.3 3.3 15 15.5 ESE 19 30 10 16 1009.6 1009.6 0.0
13/01:30pm 34.1 30.6 5.6 17 15.3 ESE 13 20 7 11 1010.0 1010.0 0.0
13/01:00pm 33.6 29.3 5.2 17 15.1 ESE 17 32 9 17 1010.5 1010.5 0.0
13/12:30pm 32.9 28.3 5.5 18 14.6 SE 19 32 10 17 1010.8 1010.8 0.0
13/12:00pm 32.8 27.4 4.6 17 14.8 SE 22 28 12 15 1011.4 1011.4 0.0
13/11:30am 32.2 27.4 5.7 19 14.1 SE 20 33 11 18 1011.9 1011.9 0.0
13/11:00am 32.4 27.1 6.6 20 14.0 ESE 24 35 13 19 1012.6 1012.6 0.0
13/10:30am 31.3 24.6 5.7 20 13.6 ESE 30 39 16 21 1013.3 1013.3 0.0
13/10:00am 31.6 25.1 6.6 21 13.5 ESE 30 39 16 21 1013.6 1013.6 0.0
13/09:30am 30.5 24.2 5.7 21 13.1 E 28 39 15 21 1014.0 1014.0 0.0
13/09:00am 29.8 23.1 5.8 22 12.6 ESE 30 39 16 21 1014.4 1014.4 0.0
13/08:30am 29.1 25.0 7.7 26 11.6 SE 19 24 10 13 1014.6 1014.6 0.0
13/08:00am 27.9 25.5 8.7 30 10.5 SE 11 19 6 10 1014.6 1014.6 0.0
13/07:30am 25.5 23.9 8.9 35 9.0 E 7 9 4 5 1014.5 1014.5 0.0
13/07:00am 23.3 22.2 10.0 43 7.3 E 6 7 3 4 1014.3 1014.3 0.0
13/06:30am 20.6 19.5 10.7 53 5.4 E 7 7 4 4 1014.1 1014.1 0.0
13/06:00am 17.9 16.6 9.3 57 4.5 E 6 7 3 4 1013.9 1013.9 0.0
13/05:30am 18.5 17.2 9.3 55 4.8 E 6 7 3 4 1013.5 1013.5 0.0
13/05:00am 18.9 17.7 9.4 54 5.0 E 6 7 3 4 1013.2 1013.2 0.0
13/04:30am 18.2 16.8 9.0 55 4.8 E 6 9 3 5 1012.8 1012.8 0.0
13/04:00am 18.2 18.1 9.3 56 4.7 CALM 0 0 0 0 1012.6 1012.6 0.0
13/03:30am 18.8 19.0 10.6 59 4.4 CALM 0 0 0 0 1012.4 1012.4 0.0
13/03:00am 17.6 17.4 9.2 58 4.4 CALM 0 0 0 0 1012.3 1012.3 0.0
13/02:30am 18.1 18.2 10.2 60 4.2 CALM 0 0 0 0 1012.3 1012.3 0.0
13/02:00am 18.4 18.4 9.7 57 4.6 CALM 0 0 0 0 1012.4 1012.4 0.0
13/01:30am 19.1 17.8 9.3 53 5.2 E 6 7 3 4 1012.2 1012.2 0.0
13/01:00am 20.3 19.0 9.8 51 5.6 E 7 9 4 5 1012.2 1012.2 0.0
13/12:30am 19.3 17.4 9.2 52 5.3 E 9 9 5 5 1012.5 1012.5 0.0
13/12:00am 18.8 17.1 8.5 51 5.3 E 7 9 4 5 1012.5 1012.5 0.0
 
Date/Time
WST
Temp
°C
App
Temp
°C
Dew
Point
°C
Rel
Hum
%
Delta-T
°C
Wind Press
QNH
hPa
Press
MSL
hPa
Rain since
9am
mm
Dir  Spd
km/h
Gust
km/h
Spd
kts
Gust
kts
12/11:30pm 18.7 18.2 7.8 49 5.6 CALM 0 0 0 0 1012.6 1012.6 0.0
12/11:00pm 19.8 19.5 8.5 48 5.9 CALM 0 0 0 0 1012.6 1012.6 0.0
12/10:30pm 20.3 20.0 8.6 47 6.1 CALM 0 0 0 0 1012.7 1012.7 0.0
12/10:00pm 20.9 19.3 8.2 44 6.6 E 6 7 3 4 1012.7 1012.7 0.0
12/09:30pm 21.9 20.4 9.1 44 6.8 E 7 9 4 5 1012.8 1012.8 0.0
12/09:00pm 21.8 21.3 8.0 41 7.2 CALM 0 0 0 0 1012.7 1012.7 0.0
12/08:30pm 23.3 21.8 9.3 41 7.6 E 7 7 4 4 1012.8 1012.8 0.0
12/08:00pm 24.2 23.6 9.0 38 8.2 E 2 7 1 4 1012.6 1012.6 0.0
12/07:30pm 25.1 22.4 7.3 32 9.4 E 11 11 6 6 1012.3 1012.3 0.0
12/07:00pm 25.6 23.2 7.2 31 9.7 E 9 11 5 6 1012.2 1012.2 0.0
12/06:30pm 25.7 23.3 6.8 30 9.9 E 9 11 5 6 1011.9 1011.9 0.0
12/06:00pm 26.6 24.4 10.7 37 8.9 ESE 13 15 7 8 1011.5 1011.5 0.0
12/05:30pm 29.2 25.4 7.7 26 11.7 SE 17 20 9 11 1011.2 1011.2 0.0
12/05:00pm 31.5 26.7 5.8 20 13.7 SSE 20 28 11 15 1010.9 1010.9 0.0
12/04:30pm 32.9 27.3 5.5 18 14.6 SSE 24 33 13 18 1010.5 1010.5 0.0
12/04:00pm 33.7 29.0 6.1 18 14.9 SSE 20 28 11 15 1010.3 1010.3 0.0
12/03:30pm 34.4 30.2 7.5 19 14.9 SE 19 24 10 13 1010.1 1010.1 0.0
12/03:00pm 34.7 30.2 6.1 17 15.6 ESE 19 26 10 14 1010.0 1010.0 0.0
12/02:30pm 34.6 29.3 5.1 16 15.8 SE 22 32 12 17 1010.1 1010.1 0.0
12/02:00pm 34.9 29.5 6.2 17 15.7 SE 24 32 13 17 1010.3 1010.3 0.0
12/01:30pm 34.7 30.0 6.1 17 15.5 SE 20 33 11 18 1010.7 1010.7 0.0
12/01:00pm 35.0 30.0 6.3 17 15.7 SE 22 30 12 16 1011.1 1011.1 0.0
12/12:30pm 34.3 29.9 7.4 19 14.9 ESE 20 28 11 15 1011.7 1011.7 0.0
12/12:00pm 34.3 28.6 6.6 18 15.1 ESE 26 33 14 18 1012.2 1012.2 0.0
12/11:30am 34.0 28.8 7.1 19 14.8 ESE 24 37 13 20 1012.7 1012.7 0.0
12/11:00am 33.6 27.5 6.8 19 14.6 E 28 41 15 22 1013.2 1013.2 0.0
12/10:30am 33.3 27.2 6.6 19 14.5 E 28 39 15 21 1013.6 1013.6 0.0
12/10:00am 33.0 27.0 7.1 20 14.2 ESE 28 33 15 18 1014.3 1014.3 0.0
12/09:30am 32.1 26.6 7.7 22 13.4 ESE 26 35 14 19 1014.5 1014.5 0.0
12/09:00am 31.4 25.6 7.8 23 13.0 ESE 28 37 15 20 1014.7 1014.7 0.0
12/08:30am 30.9 26.3 8.0 24 12.6 ESE 22 30 12 16 1014.8 1014.8 0.0
12/08:00am 29.5 24.5 8.0 26 11.7 ESE 24 32 13 17 1014.7 1014.7 0.0
12/07:30am 28.7 23.9 7.3 26 11.5 ESE 22 28 12 15 1014.6 1014.6 0.0
12/07:00am 27.1 23.3 7.5 29 10.5 ESE 17 22 9 12 1014.4 1014.4 0.0
12/06:30am 24.6 21.6 7.7 34 8.9 E 13 15 7 8 1014.3 1014.3 0.0
12/06:00am 22.3 19.2 8.8 42 7.2 E 15 17 8 9 1014.0 1014.0 0.0
12/05:30am 18.7 17.4 11.3 62 4.0 E 9 11 5 6 1013.7 1013.7 0.0
12/05:00am 18.5 16.1 10.1 58 4.5 E 13 13 7 7 1013.2 1013.2 0.0
12/04:30am 18.4 17.0 10.8 61 4.1 E 9 11 5 6 1013.0 1013.0 0.0
12/04:00am 18.9 16.7 9.4 54 5.0 E 11 11 6 6 1012.8 1012.8 0.0
12/03:30am 18.0 16.7 10.1 60 4.2 ESE 7 11 4 6 1012.6 1012.6 0.0
12/03:00am 17.3 17.1 9.0 58 4.3 CALM 0 0 0 0 1012.4 1012.4 0.0
12/02:30am 18.1 17.9 9.2 56 4.6 CALM 0 0 0 0 1012.2 1012.2 0.0
12/02:00am 18.2 18.0 9.0 55 4.8 CALM 0 0 0 0 1012.2 1012.2 0.0
12/01:30am 18.7 18.6 9.5 55 4.9 CALM 0 0 0 0 1012.0 1012.0 0.0
12/01:00am 19.5 19.6 10.2 55 5.0 CALM 0 0 0 0 1012.2 1012.2 0.0
12/12:30am 19.4 18.1 9.3 52 5.3 ESE 6 7 3 4 1012.2 1012.2 0.0
12/12:00am 20.6 19.5 10.1 51 5.7 ESE 6 7 3 4 1012.4 1012.4 0.0
 
Date/Time
WST
Temp
°C
App
Temp
°C
Dew
Point
°C
Rel
Hum
%
Delta-T
°C
Wind Press
QNH
hPa
Press
MSL
hPa
Rain since
9am
mm
Dir  Spd
km/h
Gust
km/h
Spd
kts
Gust
kts
11/11:30pm 20.3 19.6 11.5 57 4.9 ESE 6 7 3 4 1012.6 1012.6 0.0
11/11:00pm 21.2 20.0 9.4 47 6.3 ESE 6 7 3 4 1012.4 1012.4 0.0
11/10:30pm 22.0 21.1 10.5 48 6.3 ESE 6 7 3 4 1012.6 1012.6 0.0
11/10:00pm 22.4 22.6 10.5 47 6.5 CALM 0 6 0 3 1012.6 1012.6 0.0
11/09:30pm 24.8 23.6 9.5 38 8.4 ESE 6 7 3 4 1012.6 1012.6 0.0
11/09:00pm 24.6 22.7 9.0 37 8.4 ESE 9 11 5 6 1012.5 1012.5 0.0
11/08:30pm 24.2 21.6 9.4 39 8.0 SE 13 15 7 8 1012.6 1012.6 0.0
11/08:00pm 25.1 22.5 9.4 37 8.6 SE 13 13 7 7 1012.5 1012.5 0.0
11/07:30pm 25.8 24.1 10.0 37 8.7 E 9 13 5 7 1012.4 1012.4 0.0
11/07:00pm 25.9 24.2 9.7 36 8.9 E 9 11 5 6 1012.1 1012.1 0.0
11/06:30pm 26.6 25.3 11.1 38 8.8 E 9 9 5 5 1011.6 1011.6 0.0
11/06:00pm 27.7 26.6 12.1 38 9.0 E 9 11 5 6 1011.3 1011.3 0.0
11/05:30pm 29.1 26.2 6.5 24 12.0 E 11 13 6 7 1010.9 1010.9 0.0
11/05:00pm 31.9 28.9 6.2 20 13.8 E 11 15 6 8 1010.7 1010.7 0.0
11/04:30pm 33.7 29.6 6.1 18 14.9 E 17 22 9 12 1010.3 1010.3 0.0
11/04:00pm 34.4 29.6 5.8 17 15.5 E 20 28 11 15 1010.1 1010.1 0.0
11/03:30pm 35.1 30.3 5.5 16 16.0 ESE 20 30 11 16 1009.9 1009.9 0.0
11/03:00pm 35.3 30.7 6.6 17 15.8 E 20 33 11 18 1009.7 1009.7 0.0
11/02:30pm 35.8 31.7 6.1 16 16.2 ESE 17 26 9 14 1009.8 1009.8 0.0
11/02:00pm 35.9 31.4 6.2 16 16.3 E 19 32 10 17 1010.1 1010.1 0.0
11/01:30pm 36.0 30.8 5.3 15 16.6 E 22 35 12 19 1010.2 1010.2 0.0
11/01:00pm 35.6 29.7 5.9 16 16.2 E 26 37 14 20 1010.8 1010.8 0.0
11/12:30pm 35.5 30.0 5.8 16 16.1 ENE 24 39 13 21 1011.3 1011.3 0.0
11/12:00pm 35.1 29.0 6.4 17 15.7 ENE 28 43 15 23 1011.9 1011.9 0.0
11/11:30am 35.3 29.2 6.6 17 15.8 E 28 39 15 21 1012.3 1012.3 0.0
11/11:00am 34.7 27.7 6.1 17 15.5 E 32 43 17 23 1012.7 1012.7 0.0
11/10:30am 34.4 27.9 6.7 18 15.2 E 30 43 16 23 1013.2 1013.2 0.0

Other formats

Comma delimited format used in spreadsheet applications
http://www.bom.gov.au/fwo/IDW60801/IDW60801.95214.axf

JavaScript Object Notation format (JSON) in row-major order
http://www.bom.gov.au/fwo/IDW60801/IDW60801.95214.json

Data quality

Most of these data are generated automatically and are frequently updated. Quality checks on data are not normally performed. It is possible for incorrect values to appear. Refer to information at About Latest Weather Observations and please check the disclaimer before using these data.